createdAt,value
2023-02-12T00:00:02.286Z,5.62
2023-02-12T00:02:37.223Z,5.62
2023-02-12T00:05:05.840Z,5.55
2023-02-12T00:07:35.213Z,5.56
2023-02-12T00:10:04.529Z,5.59
2023-02-12T00:12:33.954Z,5.57
2023-02-12T00:15:04.647Z,5.56
2023-02-12T00:17:36.853Z,5.61
2023-02-12T00:20:14.996Z,5.57
2023-02-12T00:22:52.388Z,5.55
2023-02-12T00:25:22.608Z,5.60
2023-02-12T00:27:59.640Z,5.54
2023-02-12T00:30:31.135Z,5.56
2023-02-12T00:33:01.443Z,5.56
2023-02-12T00:35:32.810Z,5.63
2023-02-12T00:38:02.147Z,5.53
2023-02-12T00:40:37.005Z,5.49
2023-02-12T00:43:06.185Z,5.51
2023-02-12T00:45:34.150Z,5.46
2023-02-12T00:48:05.163Z,5.63
2023-02-12T00:51:20.247Z,5.60
2023-02-12T00:54:09.929Z,5.44
2023-02-12T00:57:13.422Z,5.43
2023-02-12T00:59:42.899Z,5.49
2023-02-12T01:02:10.918Z,5.48
2023-02-12T01:04:40.246Z,5.48
2023-02-12T01:07:30.494Z,5.28
2023-02-12T01:09:59.852Z,5.41
2023-02-12T01:12:32.073Z,5.36
2023-02-12T01:15:03.061Z,5.36
2023-02-12T01:17:31.197Z,5.35
2023-02-12T01:20:13.495Z,5.19
2023-02-12T01:22:43.548Z,5.14
2023-02-12T01:25:18.174Z,5.30
2023-02-12T01:27:49.477Z,5.26
2023-02-12T01:30:18.084Z,5.28
2023-02-12T01:32:51.240Z,5.22
2023-02-12T01:35:19.534Z,5.23
2023-02-12T01:37:51.758Z,5.19
2023-02-12T01:40:38.155Z,5.12
2023-02-12T01:43:12.840Z,5.20
2023-02-12T01:45:50.159Z,5.10
2023-02-12T01:48:20.049Z,5.11
2023-02-12T01:50:50.434Z,5.18
2023-02-12T01:53:48.026Z,5.23
2023-02-12T01:56:24.029Z,5.19
2023-02-12T01:58:59.047Z,5.18
2023-02-12T02:01:34.988Z,5.17
2023-02-12T02:04:16.498Z,5.04
2023-02-12T02:06:50.278Z,5.15
2023-02-12T02:09:20.900Z,5.04
2023-02-12T02:12:08.983Z,5.07
2023-02-12T02:14:37.646Z,5.19
2023-02-12T02:17:32.867Z,5.14
2023-02-12T02:20:36.834Z,5.14
2023-02-12T02:23:23.704Z,5.15
2023-02-12T02:26:31.149Z,5.15
2023-02-12T02:29:21.737Z,5.15
2023-02-12T02:31:57.233Z,5.14
2023-02-12T02:34:43.777Z,5.15
2023-02-12T02:37:23.589Z,5.15
2023-02-12T02:39:57.470Z,5.08
2023-02-12T02:42:33.148Z,5.13
2023-02-12T02:45:08.627Z,5.19
2023-02-12T02:47:42.641Z,5.20
2023-02-12T02:50:14.988Z,5.17
2023-02-12T02:52:49.472Z,5.17
2023-02-12T02:55:32.121Z,5.06
2023-02-12T02:58:10.276Z,5.09
2023-02-12T03:00:53.316Z,5.21
2023-02-12T03:03:52.112Z,5.19
2023-02-12T03:06:39.045Z,5.14
2023-02-12T03:09:41.672Z,5.16
2023-02-12T03:12:22.885Z,5.19
2023-02-12T03:14:56.341Z,5.16
2023-02-12T03:17:41.068Z,5.19
2023-02-12T03:20:39.241Z,5.17
2023-02-12T03:23:22.671Z,5.16
2023-02-12T03:25:57.098Z,5.04
2023-02-12T03:28:42.109Z,5.13
2023-02-12T03:31:26.754Z,5.14
2023-02-12T03:34:10.154Z,5.13
2023-02-12T03:37:00.790Z,5.18
2023-02-12T03:39:45.289Z,5.22
2023-02-12T03:42:24.446Z,5.14
2023-02-12T03:44:57.783Z,5.15
2023-02-12T03:47:41.446Z,5.13
2023-02-12T03:50:15.230Z,5.12
2023-02-12T03:53:11.903Z,5.04
2023-02-12T03:55:55.725Z,5.09
2023-02-12T03:58:33.355Z,5.16
2023-02-12T04:01:02.585Z,5.06
2023-02-12T04:03:33.192Z,5.13
2023-02-12T04:06:12.401Z,5.14
2023-02-12T04:08:50.341Z,5.05
2023-02-12T04:11:37.606Z,4.96
2023-02-12T04:14:26.164Z,5.11
2023-02-12T04:17:06.586Z,5.10
2023-02-12T04:19:44.881Z,5.11
2023-02-12T04:22:35.331Z,5.07
2023-02-12T04:25:26.307Z,5.09
2023-02-12T04:28:01.291Z,5.08
2023-02-12T04:30:37.057Z,5.07
2023-02-12T04:33:07.877Z,5.06
2023-02-12T04:35:40.024Z,5.05
2023-02-12T04:38:19.853Z,5.06
2023-02-12T04:40:52.899Z,5.05
2023-02-12T04:43:36.736Z,5.06
2023-02-12T04:46:06.746Z,5.03
2023-02-12T04:48:39.969Z,4.90
2023-02-12T04:51:11.807Z,5.05
2023-02-12T04:53:41.112Z,4.93
2023-02-12T04:56:19.818Z,5.02
2023-02-12T04:58:51.591Z,5.00
2023-02-12T05:01:23.320Z,5.01
2023-02-12T05:03:53.045Z,5.02
2023-02-12T05:06:23.536Z,5.00
2023-02-12T05:08:53.963Z,4.94
2023-02-12T05:11:25.472Z,4.95
2023-02-12T05:14:02.976Z,4.87
2023-02-12T05:16:31.172Z,4.93
2023-02-12T05:19:01.420Z,4.96
2023-02-12T05:21:36.978Z,4.98
2023-02-12T05:24:07.678Z,4.99
2023-02-12T05:26:37.604Z,4.95
2023-02-12T05:29:05.583Z,4.99
2023-02-12T05:31:34.887Z,4.96
2023-02-12T05:34:06.645Z,4.99
2023-02-12T05:36:49.958Z,4.91
2023-02-12T05:39:27.474Z,4.97
2023-02-12T05:42:06.356Z,5.01
2023-02-12T05:47:21.576Z,4.91
2023-02-12T05:49:52.787Z,4.94
2023-02-12T05:52:28.056Z,5.01
2023-02-12T05:55:08.277Z,5.01
2023-02-12T05:57:40.138Z,4.98
2023-02-12T06:00:10.282Z,4.96
2023-02-12T06:02:44.626Z,4.95
2023-02-12T06:05:15.937Z,4.87
2023-02-12T06:07:50.809Z,4.93
2023-02-12T06:10:23.237Z,4.91
2023-02-12T06:12:58.761Z,4.82
2023-02-12T06:15:29.428Z,4.93
2023-02-12T06:18:13.102Z,4.94
2023-02-12T06:20:42.442Z,4.90
2023-02-12T06:23:15.139Z,4.85
2023-02-12T06:25:44.260Z,4.86
2023-02-12T06:28:20.493Z,4.72
2023-02-12T06:30:48.561Z,4.85
2023-02-12T06:33:21.050Z,4.86
2023-02-12T06:35:57.238Z,4.79
2023-02-12T06:38:27.920Z,4.83
2023-02-12T06:41:03.323Z,4.78
2023-02-12T06:43:39.070Z,4.71
2023-02-12T06:46:10.174Z,4.92
2023-02-12T06:48:40.072Z,4.86
2023-02-12T06:51:12.090Z,4.89
2023-02-12T06:53:40.525Z,4.81
2023-02-12T06:56:11.494Z,4.81
2023-02-12T06:58:43.755Z,4.88
2023-02-12T07:01:17.859Z,4.87
2023-02-12T07:03:56.062Z,4.81
2023-02-12T07:06:30.351Z,4.80
2023-02-12T07:09:00.713Z,4.86
2023-02-12T07:11:39.986Z,4.79
2023-02-12T07:14:15.170Z,4.93
2023-02-12T07:16:43.629Z,4.95
2023-02-12T07:19:17.675Z,4.92
2023-02-12T07:21:45.714Z,4.89
2023-02-12T07:24:23.702Z,4.98
2023-02-12T07:26:59.421Z,4.93
2023-02-12T07:29:31.054Z,4.90
2023-02-12T07:32:05.583Z,4.85
2023-02-12T07:34:38.269Z,4.95
2023-02-12T07:38:43.017Z,5.08
2023-02-12T07:40:10.799Z,4.95
2023-02-12T07:42:57.168Z,5.14
2023-02-12T07:45:28.691Z,5.12
2023-02-12T07:48:00.987Z,5.05
2023-02-12T07:50:31.191Z,5.11
2023-02-12T07:53:11.250Z,5.05
2023-02-12T07:56:09.007Z,5.17
2023-02-12T07:58:38.791Z,5.21
2023-02-12T08:01:21.546Z,5.14
2023-02-12T08:04:01.277Z,5.32
2023-02-12T08:06:31.201Z,5.40
2023-02-12T08:09:09.299Z,5.33
2023-02-12T08:11:45.309Z,5.46
2023-02-12T08:14:21.103Z,5.44
2023-02-12T08:16:53.548Z,5.44
2023-02-12T08:19:25.734Z,5.61
2023-02-12T08:21:58.674Z,5.59
2023-02-12T08:25:13.730Z,5.53
2023-02-12T08:27:23.154Z,5.74
2023-02-12T08:29:52.985Z,5.79
2023-02-12T08:32:22.658Z,5.91
2023-02-12T08:34:55.407Z,5.84
2023-02-12T08:37:27.492Z,5.88
2023-02-12T08:39:57.368Z,6.09
2023-02-12T08:42:27.929Z,6.04
2023-02-12T08:45:17.028Z,6.09
2023-02-12T08:49:41.439Z,5.95
2023-02-12T08:51:04.018Z,6.24
2023-02-12T08:56:34.371Z,6.21
2023-02-12T08:59:04.088Z,6.24
2023-02-12T09:01:42.836Z,6.31
2023-02-12T09:04:19.172Z,6.65
2023-02-12T09:06:49.532Z,6.49
2023-02-12T09:09:19.719Z,6.68
2023-02-12T09:11:50.676Z,6.70
2023-02-12T09:14:25.145Z,6.67
2023-02-12T09:17:01.792Z,6.73
2023-02-12T09:19:32.816Z,6.63
2023-02-12T09:22:08.640Z,6.65
2023-02-12T09:24:37.979Z,6.71
2023-02-12T09:27:06.708Z,6.79
2023-02-12T09:29:41.933Z,6.93
2023-02-12T09:32:10.544Z,7.14
2023-02-12T09:34:42.477Z,7.11
2023-02-12T09:37:10.444Z,7.29
2023-02-12T09:39:48.555Z,7.52
2023-02-12T09:42:35.556Z,7.14
2023-02-12T09:45:16.779Z,7.40
2023-02-12T09:47:57.394Z,7.58
2023-02-12T09:50:46.867Z,7.55
2023-02-12T09:53:19.369Z,7.66
2023-02-12T09:55:58.102Z,7.69
2023-02-12T09:58:37.840Z,7.64
2023-02-12T10:01:17.034Z,7.75
2023-02-12T10:03:53.985Z,7.84
2023-02-12T10:06:31.513Z,7.53
2023-02-12T10:09:48.451Z,7.75
2023-02-12T10:12:27.137Z,7.92
2023-02-12T10:15:58.434Z,8.10
2023-02-12T10:18:48.266Z,8.18
2023-02-12T10:21:44.588Z,8.22
2023-02-12T10:24:53.479Z,8.21
2023-02-12T10:27:32.545Z,8.46
2023-02-12T10:30:17.313Z,8.59
2023-02-12T10:32:48.983Z,8.55
2023-02-12T10:35:22.414Z,8.65
2023-02-12T10:38:01.298Z,9.03
2023-02-12T10:40:38.420Z,9.04
2023-02-12T10:43:18.209Z,9.22
2023-02-12T10:45:54.587Z,8.74
2023-02-12T10:48:27.239Z,8.93
2023-02-12T10:51:25.339Z,8.73
2023-02-12T10:54:02.450Z,9.03
2023-02-12T10:56:42.640Z,8.92
2023-02-12T10:59:30.236Z,8.82
2023-02-12T11:02:02.245Z,8.93
2023-02-12T11:04:46.834Z,9.02
2023-02-12T11:07:42.353Z,9.08
2023-02-12T11:10:38.567Z,9.39
2023-02-12T11:13:29.917Z,9.66
2023-02-12T11:16:16.134Z,10.07
2023-02-12T11:18:48.878Z,9.71
2023-02-12T11:21:27.386Z,9.56
2023-02-12T11:24:00.571Z,9.73
2023-02-12T11:26:43.980Z,10.72
2023-02-12T11:29:24.489Z,11.52
2023-02-12T11:32:04.041Z,11.29
2023-02-12T11:34:34.516Z,11.42
2023-02-12T11:37:04.032Z,11.76
2023-02-12T11:39:47.439Z,12.46
2023-02-12T11:42:25.508Z,12.23
2023-02-12T11:45:03.597Z,12.17
2023-02-12T11:47:44.392Z,11.90
2023-02-12T11:50:28.616Z,12.02
2023-02-12T11:53:27.204Z,10.79
2023-02-12T11:56:03.426Z,10.68
2023-02-12T11:58:34.342Z,10.22
2023-02-12T12:01:15.921Z,10.24
2023-02-12T12:03:53.300Z,10.47
2023-02-12T12:06:33.881Z,10.59
2023-02-12T12:09:06.441Z,10.94
2023-02-12T12:11:48.186Z,11.30
2023-02-12T12:14:25.595Z,11.57
2023-02-12T12:17:18.100Z,11.05
2023-02-12T12:19:54.834Z,10.70
2023-02-12T12:22:31.689Z,10.85
2023-02-12T12:25:07.038Z,10.39
2023-02-12T12:28:01.696Z,10.49
2023-02-12T12:30:56.802Z,10.35
2023-02-12T12:33:36.273Z,10.61
2023-02-12T12:36:34.858Z,10.62
2023-02-12T12:39:11.742Z,10.48
2023-02-12T12:42:13.014Z,10.62
2023-02-12T12:44:56.605Z,10.61
2023-02-12T12:47:32.866Z,10.27
2023-02-12T12:50:19.096Z,10.25
2023-02-12T12:52:59.975Z,10.11
2023-02-12T12:56:14.778Z,10.15
2023-02-12T12:59:00.287Z,10.15
2023-02-12T13:01:58.155Z,10.03
2023-02-12T13:05:02.349Z,9.94
2023-02-12T13:07:44.626Z,10.00
2023-02-12T13:10:21.853Z,9.97
2023-02-12T13:13:08.000Z,9.92
2023-02-12T13:15:42.074Z,9.81
2023-02-12T13:18:21.613Z,9.61
2023-02-12T13:20:58.762Z,9.61
2023-02-12T13:23:37.013Z,9.59
2023-02-12T13:26:13.624Z,9.52
2023-02-12T13:28:52.047Z,9.61
2023-02-12T13:31:35.221Z,9.82
2023-02-12T13:34:10.664Z,9.51
2023-02-12T13:36:44.837Z,9.67
2023-02-12T13:39:28.597Z,9.92
2023-02-12T13:42:11.879Z,9.94
2023-02-12T13:44:48.497Z,9.90
2023-02-12T13:47:40.960Z,9.84
2023-02-12T13:50:31.346Z,10.01
2023-02-12T13:53:07.213Z,9.97
2023-02-12T13:55:50.295Z,10.02
2023-02-12T13:59:01.140Z,10.04
2023-02-12T14:01:51.403Z,9.88
2023-02-12T14:04:48.944Z,9.63
2023-02-12T14:07:17.837Z,9.67
2023-02-12T14:10:03.288Z,9.61
2023-02-12T14:12:42.931Z,9.45
2023-02-12T14:15:21.706Z,9.42
2023-02-12T14:17:56.103Z,9.26
2023-02-12T14:20:40.364Z,9.41
2023-02-12T14:23:32.519Z,9.22
2023-02-12T14:26:18.937Z,9.16
2023-02-12T14:29:21.636Z,9.18
2023-02-12T14:31:49.587Z,9.23
2023-02-12T14:34:48.422Z,9.17
2023-02-12T14:37:38.571Z,9.21
2023-02-12T14:40:32.620Z,9.18
2023-02-12T14:43:03.380Z,9.19
2023-02-12T14:45:52.469Z,8.97
2023-02-12T14:49:10.203Z,9.08
2023-02-12T14:51:44.727Z,9.00
2023-02-12T14:54:21.861Z,9.02
2023-02-12T14:56:54.332Z,8.69
2023-02-12T14:59:33.435Z,8.68
2023-02-12T15:02:06.753Z,8.73
2023-02-12T15:04:39.496Z,8.78
2023-02-12T15:07:28.839Z,8.64
2023-02-12T15:10:10.239Z,8.59
2023-02-12T15:12:46.482Z,8.83
2023-02-12T15:15:24.420Z,8.74
2023-02-12T15:18:05.683Z,8.74
2023-02-12T15:20:40.543Z,8.67
2023-02-12T15:23:35.731Z,8.64
2023-02-12T15:26:12.865Z,8.67
2023-02-12T15:28:46.046Z,8.62
2023-02-12T15:31:20.646Z,8.69
2023-02-12T15:33:56.259Z,8.61
2023-02-12T15:36:26.624Z,8.58
2023-02-12T15:39:00.810Z,8.66
2023-02-12T15:41:42.028Z,8.60
2023-02-12T15:44:35.135Z,8.68
2023-02-12T15:47:14.634Z,8.54
2023-02-12T15:49:45.003Z,8.57
2023-02-12T15:52:22.400Z,8.62
2023-02-12T15:54:56.181Z,8.48
2023-02-12T15:57:26.738Z,8.39
2023-02-12T15:59:57.362Z,8.53
2023-02-12T16:02:29.689Z,8.43
2023-02-12T16:05:00.040Z,8.40
2023-02-12T16:07:35.008Z,8.35
2023-02-12T16:10:03.909Z,8.35
2023-02-12T16:12:37.679Z,8.38
2023-02-12T16:15:08.986Z,8.38
2023-02-12T16:17:38.375Z,8.31
2023-02-12T16:20:25.558Z,8.12
2023-02-12T16:23:04.747Z,8.32
2023-02-12T16:25:43.000Z,8.12
2023-02-12T16:28:26.887Z,8.01
2023-02-12T16:31:09.424Z,8.03
2023-02-12T16:33:45.361Z,8.05
2023-02-12T16:36:30.517Z,8.09
2023-02-12T16:39:11.613Z,8.04
2023-02-12T16:42:04.808Z,7.99
2023-02-12T16:44:34.866Z,7.98
2023-02-12T16:47:07.321Z,7.93
2023-02-12T16:49:41.628Z,7.78
2023-02-12T16:52:47.150Z,7.82
2023-02-12T16:55:34.196Z,7.72
2023-02-12T16:58:05.700Z,7.86
2023-02-12T17:00:35.048Z,7.82
2023-02-12T17:03:19.568Z,7.81
2023-02-12T17:05:58.354Z,7.81
2023-02-12T17:08:29.019Z,7.79
2023-02-12T17:11:24.329Z,7.59
2023-02-12T17:13:55.004Z,7.76
2023-02-12T17:16:31.245Z,7.76
2023-02-12T17:19:01.476Z,7.74
2023-02-12T17:22:02.756Z,7.76
2023-02-12T17:24:26.696Z,7.73
2023-02-12T17:26:56.365Z,7.69
2023-02-12T17:29:30.922Z,7.65
2023-02-12T17:31:59.550Z,7.60
2023-02-12T17:34:34.077Z,7.59
2023-02-12T17:38:44.346Z,7.53
2023-02-12T17:40:01.529Z,7.46
2023-02-12T17:42:36.643Z,7.58
2023-02-12T17:45:09.529Z,7.55
2023-02-12T17:47:40.590Z,7.54
2023-02-12T17:50:10.189Z,7.51
2023-02-12T17:52:38.277Z,7.46
2023-02-12T17:55:10.637Z,7.42
2023-02-12T17:57:39.292Z,7.47
2023-02-12T18:00:08.997Z,7.43
2023-02-12T18:02:39.125Z,7.37
2023-02-12T18:05:07.759Z,7.41
2023-02-12T18:07:38.033Z,7.31
2023-02-12T18:10:13.784Z,7.36
2023-02-12T18:12:41.930Z,7.33
2023-02-12T18:15:11.082Z,7.37
2023-02-12T18:17:45.132Z,7.33
2023-02-12T18:20:13.712Z,7.29
2023-02-12T18:22:41.638Z,7.35
2023-02-12T18:25:12.969Z,7.31
2023-02-12T18:27:42.159Z,7.27
2023-02-12T18:30:11.753Z,7.29
2023-02-12T18:32:42.657Z,7.27
2023-02-12T18:35:16.385Z,7.23
2023-02-12T18:37:45.635Z,7.25
2023-02-12T18:40:17.926Z,7.16
2023-02-12T18:42:48.006Z,7.26
2023-02-12T18:45:26.216Z,7.27
2023-02-12T18:48:02.782Z,7.28
2023-02-12T18:50:37.574Z,7.25
2023-02-12T18:53:07.848Z,7.25
2023-02-12T18:55:57.713Z,7.23
2023-02-12T18:58:27.328Z,7.05
2023-02-12T19:00:59.703Z,7.13
2023-02-12T19:03:27.881Z,7.23
2023-02-12T19:06:06.363Z,7.21
2023-02-12T19:08:36.789Z,7.20
2023-02-12T19:11:06.699Z,7.16
2023-02-12T19:13:35.783Z,7.22
2023-02-12T19:16:08.014Z,7.25
2023-02-12T19:18:39.308Z,7.21
2023-02-12T19:21:13.024Z,7.15
2023-02-12T19:23:41.835Z,7.16
2023-02-12T19:26:17.800Z,7.15
2023-02-12T19:28:45.777Z,7.22
2023-02-12T19:31:28.262Z,7.12
2023-02-12T19:33:58.156Z,6.96
2023-02-12T19:36:29.232Z,7.06
2023-02-12T19:39:00.279Z,7.03
2023-02-12T19:41:32.857Z,7.08
2023-02-12T19:44:03.595Z,7.07
2023-02-12T19:46:32.278Z,6.99
2023-02-12T19:49:03.653Z,7.05
2023-02-12T19:51:33.558Z,6.91
2023-02-12T19:54:02.894Z,6.85
2023-02-12T19:56:41.147Z,6.92
2023-02-12T19:59:20.227Z,6.93
2023-02-12T20:01:48.978Z,6.93
2023-02-12T20:04:21.264Z,6.85
2023-02-12T20:06:57.892Z,6.79
2023-02-12T20:09:27.488Z,6.81
2023-02-12T20:11:59.649Z,6.82
2023-02-12T20:14:28.949Z,6.82
2023-02-12T20:16:59.513Z,6.86
2023-02-12T20:19:30.861Z,6.88
2023-02-12T20:22:01.665Z,6.87
2023-02-12T20:24:31.395Z,6.76
2023-02-12T20:27:04.159Z,6.81
2023-02-12T20:29:32.767Z,6.81
2023-02-12T20:32:02.062Z,6.79
2023-02-12T20:34:49.938Z,6.75
2023-02-12T20:37:20.748Z,6.76
2023-02-12T20:39:48.781Z,6.71
2023-02-12T20:42:20.106Z,6.78
2023-02-12T20:44:51.768Z,6.70
2023-02-12T20:47:28.316Z,6.85
2023-02-12T20:50:06.783Z,6.83
2023-02-12T20:52:44.340Z,6.85
2023-02-12T20:55:12.367Z,6.87
2023-02-12T20:57:43.742Z,6.84
2023-02-12T21:00:12.875Z,6.89
2023-02-12T21:02:41.068Z,6.84
2023-02-12T21:05:12.692Z,6.81
2023-02-12T21:07:42.490Z,6.79
2023-02-12T21:10:11.669Z,6.81
2023-02-12T21:12:41.068Z,6.87
2023-02-12T21:15:11.282Z,6.82
2023-02-12T21:17:39.334Z,6.74
2023-02-12T21:21:44.305Z,6.74
2023-02-12T21:23:02.310Z,6.67
2023-02-12T21:25:30.402Z,6.71
2023-02-12T21:28:00.866Z,6.69
2023-02-12T21:30:32.590Z,6.75
2023-02-12T21:33:04.432Z,6.70
2023-02-12T21:35:39.762Z,6.69
2023-02-12T21:38:13.690Z,6.67
2023-02-12T21:40:46.635Z,6.64
2023-02-12T21:43:37.265Z,6.58
2023-02-12T21:46:05.935Z,6.79
2023-02-12T21:48:34.176Z,6.75
2023-02-12T21:51:02.929Z,6.73
2023-02-12T21:53:30.865Z,6.75
2023-02-12T21:56:03.293Z,6.72
2023-02-12T21:58:33.078Z,6.73
2023-02-12T22:01:08.151Z,6.69
2023-02-12T22:03:36.226Z,6.73
2023-02-12T22:06:25.278Z,6.72
2023-02-12T22:08:53.740Z,6.69
2023-02-12T22:11:23.336Z,6.69
2023-02-12T22:13:54.472Z,6.68
2023-02-12T22:16:27.266Z,6.66
2023-02-12T22:18:57.291Z,6.56
2023-02-12T22:21:26.871Z,6.66
2023-02-12T22:23:55.598Z,6.68
2023-02-12T22:26:25.800Z,6.62
2023-02-12T22:28:57.921Z,6.63
2023-02-12T22:31:29.303Z,6.57
2023-02-12T22:33:59.462Z,6.64
2023-02-12T22:36:28.424Z,6.60
2023-02-12T22:38:58.998Z,6.59
2023-02-12T22:41:30.268Z,6.61
2023-02-12T22:44:01.840Z,6.61
2023-02-12T22:46:29.851Z,6.57
2023-02-12T22:48:58.545Z,6.61
2023-02-12T22:51:29.093Z,6.70
2023-02-12T22:53:58.062Z,6.74
2023-02-12T22:56:27.273Z,6.80
2023-02-12T22:58:56.511Z,6.81
2023-02-12T23:01:26.605Z,6.80
2023-02-12T23:03:55.447Z,6.79
2023-02-12T23:06:25.689Z,6.74
2023-02-12T23:08:56.413Z,6.58
2023-02-12T23:11:24.983Z,6.71
2023-02-12T23:13:53.516Z,6.71
2023-02-12T23:16:22.618Z,6.74
2023-02-12T23:18:55.442Z,6.77
2023-02-12T23:21:24.477Z,6.79
2023-02-12T23:23:52.479Z,6.71
2023-02-12T23:26:20.488Z,6.77
2023-02-12T23:28:48.691Z,6.77
2023-02-12T23:31:16.881Z,6.76
2023-02-12T23:33:44.924Z,6.73
2023-02-12T23:36:14.186Z,6.69
2023-02-12T23:38:42.049Z,6.61
2023-02-12T23:41:10.180Z,6.71
2023-02-12T23:43:38.279Z,6.64
2023-02-12T23:46:06.705Z,6.65
2023-02-12T23:48:34.755Z,6.68
2023-02-12T23:51:02.571Z,6.67
2023-02-12T23:53:31.981Z,6.62
2023-02-12T23:56:01.852Z,6.64
2023-02-12T23:58:29.736Z,6.62
